Time;durP1;ratioP1;P1;durP2;ratioP2;P2;SDS_P1;SDS_P2;PMS_P1;PMS_P2;Temp;Humidity;BMP_temperature;BMP_pressure;BME280_temperature;BME280_humidity;BME280_pressure;Samples;Min_cycle;Max_cycle;Signal;HPM_P1;HPM_P2
2022/12/05 00:01:47;;;;;;;35.03;15.35;;;;;;;0.78;100.00;99463.91;4224460;34;20043;-70
2022/12/05 00:04:13;;;;;;;52.45;16.65;;;;;;;1.11;100.00;99462.88;4223408;34;20057;-70
2022/12/05 00:06:41;;;;;;;37.17;14.80;;;;;;;0.94;100.00;99457.69;4224946;34;20058;-70
2022/12/05 00:09:11;;;;;;;36.95;14.35;;;;;;;0.77;100.00;99440.25;4224164;34;20027;-70
2022/12/05 00:11:41;;;;;;;35.00;15.07;;;;;;;1.04;100.00;99426.47;4222329;34;20361;-69
2022/12/05 00:14:09;;;;;;;34.53;14.73;;;;;;;1.31;100.00;99460.53;4223675;34;20076;-70
2022/12/05 00:16:38;;;;;;;36.25;14.73;;;;;;;1.32;100.00;99443.63;4224588;34;20418;-70
2022/12/05 00:19:06;;;;;;;23.17;12.30;;;;;;;1.05;100.00;99459.94;4224464;34;20365;-70
2022/12/05 00:21:40;;;;;;;23.35;10.40;;;;;;;1.08;100.00;99448.94;4221555;34;20090;-70
2022/12/05 00:24:10;;;;;;;29.98;13.80;;;;;;;0.95;100.00;99406.31;4222412;34;20042;-70
2022/12/05 00:26:36;;;;;;;28.23;14.90;;;;;;;1.24;100.00;99450.66;4224052;33;20424;-70
2022/12/05 00:29:02;;;;;;;24.60;12.77;;;;;;;0.80;100.00;99446.03;4223887;34;20031;-70
2022/12/05 00:31:30;;;;;;;24.92;14.13;;;;;;;0.65;100.00;99431.88;4224092;33;20099;-71
2022/12/05 00:34:00;;;;;;;26.10;12.95;;;;;;;0.79;100.00;99448.84;4251064;33;20374;-69
2022/12/05 00:36:29;;;;;;;30.52;14.38;;;;;;;0.60;100.00;99421.78;4242810;33;20097;-70
2022/12/05 00:38:58;;;;;;;34.80;16.00;;;;;;;0.65;100.00;99424.72;4240255;33;20043;-71
2022/12/05 00:41:27;;;;;;;30.45;15.27;;;;;;;0.77;100.00;99456.16;4253034;33;20060;-71
2022/12/05 00:43:54;;;;;;;31.08;14.80;;;;;;;1.01;100.00;99453.34;4252580;33;20067;-70
2022/12/05 00:46:23;;;;;;;27.65;13.70;;;;;;;1.02;100.00;99462.94;4258074;33;20062;-70
2022/12/05 00:48:51;;;;;;;38.00;17.75;;;;;;;0.95;100.00;99424.88;4268572;33;20085;-70
2022/12/05 00:51:21;;;;;;;29.83;14.80;;;;;;;0.76;100.00;99450.03;4261031;33;20051;-71
2022/12/05 00:53:49;;;;;;;31.62;14.23;;;;;;;0.94;100.00;99447.06;4252242;33;20050;-70
2022/12/05 00:56:21;;;;;;;30.33;14.63;;;;;;;0.99;100.00;99451.84;4254316;33;20054;-71
2022/12/05 00:58:49;;;;;;;25.00;10.13;;;;;;;1.01;100.00;99453.34;4253434;33;20361;-70
2022/12/05 03:02:34;;;;;;;27.33;13.27;;;;;;;0.55;100.00;99373.81;4265377;33;19941;-70
2022/12/05 03:05:16;;;;;;;27.15;12.82;;;;;;;0.48;100.00;99373.69;4256648;33;20042;-69
2022/12/05 03:07:46;;;;;;;26.87;13.73;;;;;;;0.70;100.00;99380.00;4238221;33;20034;-69
2022/12/05 03:10:14;;;;;;;34.22;14.45;;;;;;;0.61;100.00;99382.88;4239538;33;20072;-70
2022/12/05 03:12:47;;;;;;;23.92;11.38;;;;;;;0.69;100.00;99381.00;4219302;33;20430;-70
2022/12/05 03:15:34;;;;;;;30.75;13.43;;;;;;;0.89;100.00;99372.53;4239476;33;20093;-71
2022/12/05 03:18:10;;;;;;;44.25;19.33;;;;;;;0.68;100.00;99362.63;4239751;33;20031;-70
2022/12/05 03:20:58;;;;;;;27.45;12.50;;;;;;;0.31;100.00;99350.94;4239708;33;20059;-70
2022/12/05 03:23:29;;;;;;;35.95;15.07;;;;;;;0.47;100.00;99365.91;4239787;33;20070;-71
2022/12/05 03:26:23;;;;;;;40.85;16.37;;;;;;;0.53;100.00;99354.63;4237891;33;20430;-70
2022/12/05 03:29:14;;;;;;;26.95;12.43;;;;;;;0.57;100.00;99347.94;4239152;33;20043;-71
2022/12/05 03:31:50;;;;;;;33.30;14.52;;;;;;;0.61;100.00;99370.44;4223886;33;20478;-70
2022/12/05 03:34:27;;;;;;;29.83;12.70;;;;;;;0.58;100.00;99349.59;4222273;33;20060;-70
2022/12/05 03:36:55;;;;;;;36.60;16.12;;;;;;;0.63;100.00;99360.50;4236412;33;20042;-70
2022/12/05 03:39:32;;;;;;;29.87;17.30;;;;;;;0.15;100.00;99315.63;4238867;33;20495;-69
2022/12/05 03:42:20;;;;;;;31.92;14.00;;;;;;;0.24;100.00;99355.28;4237616;33;20086;-69
2022/12/05 03:45:14;;;;;;;30.20;14.48;;;;;;;0.28;100.00;99328.28;4246717;33;20026;-71
2022/12/05 03:47:53;;;;;;;18.70;9.43;;;;;;;0.46;100.00;99358.97;4253160;33;20065;-70
2022/12/05 03:50:28;;;;;;;32.35;15.30;;;;;;;0.41;100.00;99377.22;4251486;33;20350;-70
2022/12/05 03:53:14;;;;;;;37.33;16.05;;;;;;;0.14;100.00;99327.22;4251344;33;20463;-69
2022/12/05 03:55:43;;;;;;;38.88;17.23;;;;;;;0.49;100.00;99369.19;4224676;34;20023;-70
2022/12/05 03:58:20;;;;;;;33.75;14.32;;;;;;;-0.07;100.00;99382.59;4224475;33;20049;-71
2022/12/05 04:00:49;;;;;;;36.38;16.95;;;;;;;0.16;100.00;99364.09;4216941;34;20061;-70
2022/12/05 04:03:37;;;;;;;32.17;16.62;;;;;;;0.30;100.00;99389.88;4196102;34;20062;-70
2022/12/05 04:06:13;;;;;;;33.45;16.15;;;;;;;0.47;100.00;99392.41;4195988;34;20069;-71
2022/12/05 04:09:01;;;;;;;29.12;13.48;;;;;;;0.23;100.00;99359.75;4195856;34;20073;-69
2022/12/05 04:11:31;;;;;;;32.33;14.00;;;;;;;0.18;100.00;99404.50;4196767;34;20040;-70
2022/12/05 04:14:16;;;;;;;34.63;12.45;;;;;;;0.25;100.00;99400.13;4181501;34;20079;-68
2022/12/05 04:17:04;;;;;;;49.75;17.37;;;;;;;0.41;100.00;99398.41;4182888;34;20413;-69
2022/12/05 04:22:23;;;;;;;36.58;18.12;;;;;;;0.25;100.00;99373.66;4182640;34;20077;-69
2022/12/05 04:28:26;;;;;;;40.25;14.52;;;;;;;0.11;100.00;99361.16;4177227;34;20051;-69
2022/12/05 04:31:18;;;;;;;30.23;13.35;;;;;;;0.36;100.00;99397.09;4209735;34;20077;-70
2022/12/05 04:33:50;;;;;;;29.73;12.60;;;;;;;0.71;100.00;99400.19;4210381;34;20043;-70
2022/12/05 04:36:26;;;;;;;30.65;14.48;;;;;;;0.91;100.00;99399.72;4209804;34;20058;-70
2022/12/05 04:38:59;;;;;;;39.10;16.83;;;;;;;0.71;100.00;99394.88;4210358;34;20055;-69
2022/12/05 04:41:33;;;;;;;30.45;13.13;;;;;;;0.54;100.00;99393.34;4210173;34;20067;-69
2022/12/05 04:44:05;;;;;;;20.40;8.80;;;;;;;0.73;100.00;99389.41;4211377;34;20065;-69
2022/12/05 04:46:34;;;;;;;36.13;14.52;;;;;;;0.93;100.00;99379.16;4196465;34;20043;-70
2022/12/05 04:49:06;;;;;;;29.85;13.45;;;;;;;0.51;100.00;99367.19;4196307;34;20048;-70
2022/12/05 04:51:36;;;;;;;31.17;12.30;;;;;;;0.99;100.00;99389.06;4215558;34;20441;-69
2022/12/05 04:54:13;;;;;;;27.17;12.13;;;;;;;0.81;100.00;99378.72;4223563;34;20043;-70
2022/12/05 04:56:43;;;;;;;37.40;15.18;;;;;;;0.64;100.00;99364.81;4206684;34;20085;-70
2022/12/05 04:59:09;;;;;;;48.70;20.45;;;;;;;0.55;100.00;99384.41;4209977;34;20038;-69
2022/12/05 05:01:41;;;;;;;45.85;17.95;;;;;;;0.61;100.00;99386.34;4216921;34;20960;-69
2022/12/05 05:04:20;;;;;;;36.88;14.52;;;;;;;0.81;100.00;99399.13;4212713;34;20039;-69
2022/12/05 05:06:47;;;;;;;38.97;15.82;;;;;;;0.68;100.00;99359.97;4220522;34;20449;-69
2022/12/05 05:09:13;;;;;;;35.38;15.20;;;;;;;0.74;100.00;99398.19;4208538;34;20035;-69
2022/12/05 05:11:40;;;;;;;63.92;17.10;;;;;;;0.78;100.00;99395.00;4211084;34;20056;-70
2022/12/05 05:14:06;;;;;;;41.45;18.08;;;;;;;0.60;100.00;99397.94;4229393;33;20031;-69
2022/12/05 05:16:36;;;;;;;34.45;16.05;;;;;;;0.52;100.00;99390.87;4237081;33;20043;-70
2022/12/05 05:19:04;;;;;;;39.45;16.20;;;;;;;0.94;100.00;99393.22;4234644;33;20039;-70
2022/12/05 05:21:34;;;;;;;51.17;17.30;;;;;;;0.97;100.00;99399.00;4237734;33;20369;-70
2022/12/05 05:24:01;;;;;;;46.50;15.32;;;;;;;0.88;100.00;99353.19;4237764;33;20067;-70
2022/12/05 05:26:29;;;;;;;31.12;14.55;;;;;;;0.96;100.00;99391.22;4237205;33;20035;-70
2022/12/05 05:28:57;;;;;;;33.47;14.55;;;;;;;0.83;100.00;99354.69;4207477;34;20085;-69
2022/12/05 05:31:24;;;;;;;45.45;16.17;;;;;;;0.87;100.00;99364.78;4208458;34;20073;-70
2022/12/05 05:33:52;;;;;;;37.15;13.85;;;;;;;0.82;100.00;99390.19;4208257;34;20027;-71
2022/12/05 05:36:21;;;;;;;38.45;16.77;;;;;;;0.88;100.00;99381.53;4209404;34;20092;-70
2022/12/05 05:38:49;;;;;;;35.45;16.17;;;;;;;0.86;100.00;99380.84;4209473;34;20069;-69
2022/12/05 05:41:18;;;;;;;32.65;13.77;;;;;;;0.69;100.00;99386.28;4208065;34;20046;-70
2022/12/05 05:43:46;;;;;;;41.60;14.77;;;;;;;0.70;100.00;99369.41;4240183;33;20042;-70
2022/12/05 05:46:14;;;;;;;41.95;18.15;;;;;;;0.75;100.00;99341.50;4215317;34;20061;-70
2022/12/05 05:48:41;;;;;;;33.08;14.75;;;;;;;0.67;100.00;99360.94;4208251;34;20163;-68
2022/12/05 05:51:09;;;;;;;37.10;15.48;;;;;;;0.97;100.00;99351.25;4208034;34;20066;-70
2022/12/05 05:53:37;;;;;;;37.00;16.35;;;;;;;0.71;100.00;99339.22;4208942;34;20027;-71
2022/12/05 05:56:06;;;;;;;41.65;16.10;;;;;;;0.47;100.00;99329.63;4208769;34;20061;-72
2022/12/05 05:58:33;;;;;;;35.65;16.20;;;;;;;0.93;100.00;99371.19;4207494;34;20475;-69
2022/12/05 06:01:05;;;;;;;36.03;16.33;;;;;;;0.70;100.00;99372.03;4232122;33;20030;-71
2022/12/05 06:03:32;;;;;;;38.33;16.55;;;;;;;0.72;100.00;99364.72;4236694;33;20104;-71
2022/12/05 06:06:02;;;;;;;38.42;14.30;;;;;;;0.54;100.00;99380.09;4237096;33;20070;-71
2022/12/05 06:08:30;;;;;;;33.38;13.55;;;;;;;0.54;100.00;99340.34;4235399;33;20107;-69
2022/12/05 06:11:05;;;;;;;40.25;14.63;;;;;;;0.50;100.00;99350.47;4236484;33;20905;-70
2022/12/05 06:13:31;;;;;;;39.83;16.90;;;;;;;0.89;100.00;99376.03;4236834;33;20169;-71
2022/12/05 06:15:58;;;;;;;39.15;13.73;;;;;;;0.57;100.00;99366.50;4194693;34;20043;-70
2022/12/05 06:18:24;;;;;;;26.58;9.65;;;;;;;0.94;100.00;99364.88;4220687;33;20089;-69
2022/12/05 06:20:55;;;;;;;27.65;12.95;;;;;;;0.72;100.00;99354.13;4220348;33;20040;-70
2022/12/05 06:23:24;;;;;;;36.25;14.60;;;;;;;0.60;100.00;99350.25;4221360;34;20050;-71
2022/12/05 06:25:52;;;;;;;36.78;15.10;;;;;;;0.79;100.00;99353.44;4221961;34;20438;-70
2022/12/05 06:28:19;;;;;;;35.00;14.30;;;;;;;0.50;100.00;99360.25;4222781;34;20086;-70
2022/12/05 06:30:46;;;;;;;40.95;16.17;;;;;;;0.80;100.00;99349.75;4220886;34;20066;-70
2022/12/05 06:33:13;;;;;;;44.42;15.40;;;;;;;0.86;100.00;99343.75;4222883;34;20462;-71
2022/12/05 06:35:40;;;;;;;34.20;15.05;;;;;;;0.71;100.00;99351.66;4222874;34;20051;-70
2022/12/05 06:38:08;;;;;;;35.30;14.65;;;;;;;0.70;100.00;99356.16;4222757;34;20065;-70
2022/12/05 06:40:38;;;;;;;34.92;14.18;;;;;;;0.84;100.00;99361.66;4220578;34;20044;-69
2022/12/05 06:43:04;;;;;;;46.10;15.30;;;;;;;0.89;100.00;99364.59;4222595;33;20046;-71
2022/12/05 06:45:31;;;;;;;32.17;13.55;;;;;;;0.40;100.00;99378.19;4207895;34;20113;-70
2022/12/05 06:47:57;;;;;;;40.17;16.17;;;;;;;0.78;100.00;99367.66;4252488;33;20083;-70
2022/12/05 06:50:23;;;;;;;32.28;13.75;;;;;;;0.63;100.00;99360.50;4236347;33;20046;-68
2022/12/05 06:52:50;;;;;;;40.70;16.48;;;;;;;0.71;100.00;99363.06;4235358;33;20064;-70
2022/12/05 06:55:16;;;;;;;31.48;12.63;;;;;;;0.69;100.00;99354.47;4236593;33;20042;-70
2022/12/05 06:57:43;;;;;;;35.30;14.52;;;;;;;1.02;100.00;99354.22;4236433;33;20075;-70
2022/12/05 07:02:55;;;;;;;42.05;14.30;;;;;;;0.94;100.00;99362.22;4237699;33;20076;-71
2022/12/05 07:05:22;;;;;;;44.60;16.77;;;;;;;0.76;100.00;99351.94;4240847;33;20073;-71
2022/12/05 07:07:48;;;;;;;32.88;14.13;;;;;;;0.58;100.00;99320.47;4239301;33;20042;-69
2022/12/05 07:10:14;;;;;;;23.87;10.45;;;;;;;0.75;100.00;99352.13;4233711;33;20043;-72
2022/12/05 07:12:41;;;;;;;35.97;14.30;;;;;;;0.96;100.00;99344.34;4223781;33;20063;-70
2022/12/05 07:15:08;;;;;;;30.45;13.13;;;;;;;0.98;100.00;99352.91;4221884;34;20065;-71
2022/12/05 07:17:37;;;;;;;34.33;14.70;;;;;;;0.72;100.00;99346.19;4221753;33;20062;-70
2022/12/05 07:20:06;;;;;;;38.35;15.48;;;;;;;0.81;100.00;99362.00;4221628;34;20043;-70
2022/12/05 07:22:35;;;;;;;40.80;13.10;;;;;;;0.93;100.00;99360.59;4258289;33;20037;-70
2022/12/05 07:25:03;;;;;;;46.25;18.45;;;;;;;0.94;100.00;99367.53;4264511;33;20046;-71
2022/12/05 07:27:29;;;;;;;27.67;12.52;;;;;;;0.41;100.00;99340.13;4264463;33;20103;-71
2022/12/05 07:29:56;;;;;;;18.85;8.93;;;;;;;0.95;100.00;99363.88;4263497;33;20494;-71
2022/12/05 07:32:22;;;;;;;31.00;12.95;;;;;;;0.88;100.00;99368.25;4262997;33;20411;-70
2022/12/05 07:34:49;;;;;;;23.40;9.65;;;;;;;0.71;100.00;99325.97;4252149;33;20089;-71
2022/12/05 07:37:15;;;;;;;30.42;12.32;;;;;;;0.72;100.00;99332.94;4264316;33;20043;-72
2022/12/05 07:39:41;;;;;;;31.42;13.32;;;;;;;0.88;100.00;99331.16;4266983;33;20060;-71
2022/12/05 07:42:08;;;;;;;34.22;12.70;;;;;;;0.85;100.00;99358.00;4266918;33;20059;-70
2022/12/05 07:44:34;;;;;;;36.50;14.35;;;;;;;0.91;100.00;99352.00;4265388;33;20067;-71
2022/12/05 07:47:01;;;;;;;26.70;12.45;;;;;;;0.47;100.00;99307.63;4266044;33;20072;-74
2022/12/05 07:49:28;;;;;;;24.83;9.68;;;;;;;0.61;100.00;99349.25;4267291;33;20062;-74
2022/12/05 07:51:54;;;;;;;28.87;11.63;;;;;;;1.08;100.00;99348.16;4266107;33;20076;-73
2022/12/05 07:54:20;;;;;;;32.75;13.80;;;;;;;0.99;100.00;99341.31;4265781;33;20414;-74
2022/12/05 07:56:47;;;;;;;22.58;8.90;;;;;;;0.83;100.00;99349.41;4264948;33;20080;-74
2022/12/05 07:59:13;;;;;;;25.62;10.90;;;;;;;1.15;100.00;99356.25;4249352;33;20132;-74
2022/12/05 08:01:40;;;;;;;34.67;12.98;;;;;;;1.09;100.00;99349.81;4248979;33;20101;-73
2022/12/05 08:04:06;;;;;;;28.40;14.27;;;;;;;0.85;100.00;99355.38;4249175;33;20084;-72
2022/12/05 08:06:33;;;;;;;40.38;13.38;;;;;;;0.68;100.00;99334.28;4249437;33;20058;-73
2022/12/05 08:08:59;;;;;;;30.48;13.27;;;;;;;1.13;100.00;99352.13;4250236;33;20949;-73
2022/12/05 08:11:29;;;;;;;32.13;13.02;;;;;;;0.98;100.00;99352.91;4235619;33;20339;-73
2022/12/05 08:13:56;;;;;;;26.83;13.18;;;;;;;0.83;100.00;99322.87;4251075;33;20498;-73
2022/12/05 08:16:26;;;;;;;35.28;13.38;;;;;;;1.19;100.00;99348.75;4252130;33;20042;-73
2022/12/05 08:18:58;;;;;;;27.35;12.00;;;;;;;1.01;100.00;99304.81;4250262;33;20038;-73
2022/12/05 08:21:24;;;;;;;31.80;16.23;;;;;;;1.24;100.00;99330.47;4252703;33;20061;-73
2022/12/05 08:23:51;;;;;;;29.12;12.82;;;;;;;0.90;100.00;99347.69;4252891;33;20318;-73
2022/12/05 08:26:25;;;;;;;29.90;12.50;;;;;;;1.01;100.00;99352.56;4251401;33;20048;-73
2022/12/05 08:28:54;;;;;;;27.65;13.52;;;;;;;1.26;100.00;99344.34;4251411;33;20095;-73
2022/12/05 08:31:23;;;;;;;36.28;14.70;;;;;;;0.95;100.00;99326.75;4237185;33;20060;-74
2022/12/05 08:33:50;;;;;;;35.05;14.95;;;;;;;0.72;100.00;99324.97;4238093;33;20073;-72
2022/12/05 08:36:18;;;;;;;29.75;14.70;;;;;;;1.25;100.00;99353.34;4237253;33;20022;-73
2022/12/05 08:38:45;;;;;;;31.77;14.15;;;;;;;1.24;100.00;99341.06;4225069;33;20194;-73
2022/12/05 08:41:14;;;;;;;30.50;14.18;;;;;;;1.36;100.00;99342.28;4223394;33;20084;-73
2022/12/05 08:43:41;;;;;;;28.05;11.68;;;;;;;1.22;100.00;99337.78;4223219;33;20068;-73
2022/12/05 08:46:09;;;;;;;29.12;14.52;;;;;;;1.41;100.00;99337.25;4224005;34;20034;-74
2022/12/05 08:48:36;;;;;;;29.33;11.55;;;;;;;1.07;100.00;99298.81;4221320;33;20039;-73
2022/12/05 08:51:08;;;;;;;25.67;12.98;;;;;;;1.35;100.00;99327.34;4223672;34;20069;-73
2022/12/05 08:53:41;;;;;;;36.83;15.88;;;;;;;1.41;100.00;99326.62;4222115;33;20176;-73
2022/12/05 08:56:13;;;;;;;33.80;12.88;;;;;;;1.35;100.00;99343.28;4224581;33;20067;-73
2022/12/05 08:58:47;;;;;;;30.00;10.88;;;;;;;1.64;100.00;99341.62;4225172;34;20064;-73
2022/12/05 09:01:20;;;;;;;25.85;11.45;;;;;;;1.66;100.00;99344.94;4224580;34;20051;-74
2022/12/05 09:03:54;;;;;;;31.05;14.35;;;;;;;1.70;100.00;99340.06;4223668;34;20043;-72
2022/12/05 09:06:24;;;;;;;34.42;13.02;;;;;;;1.35;100.00;99356.53;4208638;34;20053;-74
2022/12/05 09:09:15;;;;;;;40.08;15.40;;;;;;;1.16;100.00;99359.72;4210284;34;20065;-72
2022/12/05 09:11:49;;;;;;;40.47;16.45;;;;;;;1.15;100.00;99352.75;4227924;33;20031;-72
2022/12/05 09:14:21;;;;;;;34.10;15.15;;;;;;;1.29;100.00;99357.25;4226042;34;20050;-72
2022/12/05 09:16:55;;;;;;;38.30;15.00;;;;;;;1.03;100.00;99355.03;4224042;34;20031;-71
2022/12/05 09:19:30;;;;;;;33.35;13.85;;;;;;;0.84;100.00;99346.56;4225806;34;20084;-72
2022/12/05 09:21:58;;;;;;;38.13;15.23;;;;;;;1.09;100.00;99346.37;4224433;34;20051;-73
2022/12/05 09:24:27;;;;;;;32.60;15.55;;;;;;;0.89;100.00;99327.47;4225541;34;20035;-72
2022/12/05 09:27:08;;;;;;;41.25;14.30;;;;;;;1.29;100.00;99332.56;4226851;34;20040;-72
2022/12/05 09:29:38;;;;;;;32.15;12.85;;;;;;;1.47;100.00;99329.53;4223817;34;20058;-72
2022/12/05 09:32:09;;;;;;;33.58;13.55;;;;;;;1.52;100.00;99337.81;4224885;34;20114;-71
2022/12/05 09:34:48;;;;;;;27.17;12.25;;;;;;;1.43;100.00;99329.91;4225723;33;20062;-72
2022/12/05 09:37:24;;;;;;;35.22;14.35;;;;;;;1.42;100.00;99325.63;4223842;33;20061;-72
2022/12/05 09:39:51;;;;;;;41.78;17.55;;;;;;;1.34;100.00;99336.34;4211236;34;20076;-73
2022/12/05 09:42:18;;;;;;;30.73;14.30;;;;;;;1.25;100.00;99326.81;4208092;34;20072;-73
2022/12/05 09:45:09;;;;;;;36.05;15.98;;;;;;;1.25;100.00;99297.63;4210927;34;20328;-73
2022/12/05 09:47:45;;;;;;;40.40;16.77;;;;;;;1.22;100.00;99321.88;4222991;33;20039;-73
2022/12/05 09:50:27;;;;;;;35.22;15.20;;;;;;;1.07;100.00;99292.69;4227528;33;20555;-72
2022/12/05 09:53:31;;;;;;;37.28;14.43;;;;;;;1.35;100.00;99319.38;4224439;34;20062;-72
2022/12/05 09:56:24;;;;;;;37.78;17.10;;;;;;;1.68;100.00;99308.41;4222709;33;20056;-72
2022/12/05 09:58:56;;;;;;;29.77;13.80;;;;;;;1.06;100.00;99269.81;4222927;33;20039;-73
2022/12/05 10:02:08;;;;;;;34.15;13.73;;;;;;;1.42;100.00;99312.38;4222264;33;20077;-72
2022/12/05 10:05:03;;;;;;;32.40;14.98;;;;;;;1.23;100.00;99318.22;4229764;33;20055;-72
2022/12/05 10:07:35;;;;;;;35.15;15.45;;;;;;;0.94;100.00;99203.13;4230007;33;20174;-72
2022/12/05 10:10:32;;;;;;;35.00;16.48;;;;;;;1.60;100.00;99308.50;4225181;33;20061;-74
2022/12/05 10:13:06;;;;;;;39.92;13.95;;;;;;;1.61;100.00;99315.44;4207919;34;20080;-74
2022/12/05 10:15:41;;;;;;;32.88;14.45;;;;;;;1.30;100.00;99263.41;4210513;34;20064;-71
2022/12/05 10:18:40;;;;;;;45.00;18.05;;;;;;;1.48;100.00;99304.66;4207616;34;20039;-73
2022/12/05 10:21:08;;;;;;;40.28;16.12;;;;;;;1.58;100.00;99300.72;4208840;34;20043;-72
2022/12/05 10:24:02;;;;;;;39.85;15.82;;;;;;;1.60;100.00;99304.00;4206610;34;20032;-73
2022/12/05 10:26:39;;;;;;;37.30;16.83;;;;;;;1.39;100.00;99264.97;4205135;34;20057;-73
2022/12/05 10:29:34;;;;;;;46.08;18.70;;;;;;;1.72;100.00;99300.87;4207865;34;20078;-73
2022/12/05 10:32:37;;;;;;;40.45;19.05;;;;;;;1.54;100.00;99303.94;4207451;34;20065;-69
2022/12/05 10:35:27;;;;;;;34.63;15.63;;;;;;;1.36;100.00;99296.34;4195133;34;20039;-69
2022/12/05 10:38:02;;;;;;;40.35;17.25;;;;;;;1.36;100.00;99285.75;4205273;34;20416;-69
2022/12/05 10:40:35;;;;;;;37.10;15.65;;;;;;;1.62;100.00;99295.88;4208020;34;20117;-69
2022/12/05 10:43:04;;;;;;;42.62;16.60;;;;;;;1.49;100.00;99261.22;4208667;33;20073;-70
2022/12/05 10:45:31;;;;;;;40.90;17.87;;;;;;;1.54;100.00;99280.06;4234419;33;20046;-70
2022/12/05 10:47:57;;;;;;;48.67;17.20;;;;;;;1.37;100.00;99280.25;4234917;33;20061;-70
2022/12/05 10:50:30;;;;;;;46.15;23.17;;;;;;;1.45;100.00;99250.12;4236028;33;20042;-70
2022/12/05 10:52:59;;;;;;;39.30;17.33;;;;;;;1.67;100.00;99253.66;4221472;34;20069;-70
2022/12/05 10:55:35;;;;;;;47.85;16.90;;;;;;;1.90;100.00;99276.56;4220696;34;20227;-70
2022/12/05 10:58:23;;;;;;;47.88;17.92;;;;;;;1.94;100.00;99277.87;4220336;34;20049;-70
2022/12/05 11:00:56;;;;;;;42.22;18.25;;;;;;;1.56;100.00;99235.56;4219033;34;20082;-70
2022/12/05 11:03:22;;;;;;;;;;;;;;;1.94;100.00;99277.87;4220455;34;20053;-70
2022/12/05 11:05:50;;;;;;;34.45;13.32;;;;;;;2.39;100.00;99265.22;4219550;34;19977;-70
2022/12/05 11:08:29;;;;;;;45.72;17.80;;;;;;;2.22;100.00;99253.19;4221518;34;20081;-69
2022/12/05 11:11:16;;;;;;;41.45;18.37;;;;;;;2.22;100.00;99263.84;4221195;33;20035;-70
2022/12/05 11:13:54;;;;;;;47.62;15.65;;;;;;;1.86;100.00;99254.09;4195864;34;20027;-70
2022/12/05 11:16:34;;;;;;;36.08;14.10;;;;;;;2.11;100.00;99252.72;4201667;34;20336;-70
2022/12/05 11:19:32;;;;;;;38.80;14.57;;;;;;;2.26;100.00;99249.97;4224762;34;20062;-71
2022/12/05 11:22:00;;;;;;;39.03;16.62;;;;;;;2.21;100.00;99256.91;4220502;34;20031;-70
2022/12/05 11:24:30;;;;;;;37.55;16.45;;;;;;;2.06;100.00;99260.44;4220720;34;20047;-70
2022/12/05 11:27:24;;;;;;;37.55;14.80;;;;;;;2.24;100.00;99252.00;4222032;34;20154;-69
2022/12/05 11:30:10;;;;;;;44.45;19.02;;;;;;;1.96;100.00;99249.28;4226089;33;20414;-70
2022/12/05 11:32:43;;;;;;;41.10;15.90;;;;;;;2.01;100.00;99215.03;4238750;33;20486;-69
2022/12/05 11:35:12;;;;;;;47.00;17.37;;;;;;;2.05;100.00;99216.28;4237781;33;20481;-69
2022/12/05 11:37:47;;;;;;;45.00;16.35;;;;;;;2.11;100.00;99258.03;4237736;33;20054;-70
2022/12/05 11:40:55;;;;;;;44.65;18.30;;;;;;;1.88;100.00;99252.06;4235993;33;20097;-70
2022/12/05 11:43:43;;;;;;;46.50;19.17;;;;;;;2.32;100.00;99248.41;4236817;33;20399;-70
2022/12/05 11:46:40;;;;;;;54.95;19.25;;;;;;;2.12;100.00;99249.06;4268294;33;20033;-69
2022/12/05 11:49:43;;;;;;;49.20;16.85;;;;;;;1.87;100.00;99250.41;4266443;33;20398;-69
2022/12/05 11:52:29;;;;;;;46.83;15.52;;;;;;;2.02;100.00;99210.53;4268852;33;20045;-69
2022/12/05 11:55:16;;;;;;;42.88;16.70;;;;;;;2.55;100.00;99242.88;4268113;33;20068;-69
2022/12/05 11:58:09;;;;;;;52.50;20.52;;;;;;;2.77;100.00;99235.69;4269943;33;20038;-69
2022/12/05 12:03:59;;;;;;;46.72;18.73;;;;;;;2.62;100.00;99232.31;4208374;34;20190;-74
2022/12/05 12:06:30;;;;;;;42.80;18.25;;;;;;;2.64;100.00;99230.28;4212979;34;20051;-74
2022/12/05 12:09:24;;;;;;;44.58;17.45;;;;;;;2.48;100.00;99215.44;4210295;34;20395;-73
2022/12/05 12:12:19;;;;;;;52.97;19.62;;;;;;;2.76;100.00;99223.41;4211959;34;20043;-73
2022/12/05 12:15:12;;;;;;;47.15;17.62;;;;;;;2.54;100.00;99220.78;4202422;34;20316;-73
2022/12/05 12:17:55;;;;;;;42.00;19.62;;;;;;;2.27;100.00;99213.63;4202983;34;20060;-74
2022/12/05 12:21:35;;;;;;;44.70;17.20;;;;;;;2.01;100.00;99204.41;4201801;34;20133;-74
2022/12/05 12:24:10;;;;;;;54.45;19.70;;;;;;;2.41;100.00;99199.44;4141381;34;20084;-75
2022/12/05 12:27:04;;;;;;;58.80;21.87;;;;;;;2.43;100.00;99185.94;4150599;34;20113;-74
2022/12/05 12:29:41;;;;;;;43.50;18.20;;;;;;;2.44;100.00;99199.06;4153452;34;20106;-75
2022/12/05 12:32:14;;;;;;;44.22;17.42;;;;;;;2.52;100.00;99190.94;4159371;34;20076;-74
2022/12/05 12:35:20;;;;;;;41.40;17.12;;;;;;;2.49;100.00;99163.88;4162247;34;20449;-73
2022/12/05 12:37:56;;;;;;;54.38;18.10;;;;;;;2.85;100.00;99194.81;4133282;34;20044;-74
2022/12/05 12:40:48;;;;;;;43.70;16.50;;;;;;;2.51;100.00;99161.88;4162968;34;20032;-74
2022/12/05 12:43:23;;;;;;;47.13;17.67;;;;;;;2.69;100.00;99186.13;4177316;34;20066;-73
2022/12/05 12:46:09;;;;;;;42.17;18.25;;;;;;;2.59;100.00;99195.47;4174372;34;20051;-73
2022/12/05 12:48:47;;;;;;;54.95;19.85;;;;;;;2.43;100.00;99196.59;4174037;34;20036;-74
2022/12/05 12:51:14;;;;;;;43.83;18.40;;;;;;;2.04;100.00;99160.69;4174600;34;20074;-74
2022/12/05 12:54:13;;;;;;;51.83;19.10;;;;;;;1.98;100.00;99167.59;4171737;34;20083;-74
2022/12/05 12:57:19;;;;;;;42.67;19.70;;;;;;;2.37;100.00;99187.53;4210520;33;20179;-73
2022/12/05 13:00:12;;;;;;;37.85;16.87;;;;;;;2.46;100.00;99193.53;4190181;34;20110;-74
2022/12/05 13:02:56;;;;;;;47.45;20.65;;;;;;;2.61;100.00;99199.56;4190837;34;20083;-75
2022/12/05 13:05:47;;;;;;;52.10;16.98;;;;;;;2.51;100.00;99193.78;4165979;34;20127;-74
2022/12/05 13:08:29;;;;;;;45.95;18.98;;;;;;;2.73;100.00;99197.22;4167604;34;20374;-73
2022/12/05 13:11:10;;;;;;;49.55;21.27;;;;;;;2.70;100.00;99198.41;4164055;34;20467;-74
2022/12/05 13:13:55;;;;;;;46.72;19.37;;;;;;;2.33;100.00;99138.44;4164269;34;20189;-74
2022/12/05 13:16:41;;;;;;;46.90;18.17;;;;;;;2.74;100.00;99193.50;4155907;34;20040;-74
2022/12/05 13:19:39;;;;;;;51.17;20.55;;;;;;;2.93;100.00;99186.69;4155109;34;20086;-73
2022/12/05 13:22:07;;;;;;;58.33;20.27;;;;;;;2.59;100.00;99115.72;4157730;34;20510;-73
2022/12/05 13:24:34;;;;;;;44.22;16.62;;;;;;;2.86;100.00;99186.66;4140598;34;20729;-75
2022/12/05 13:27:19;;;;;;;48.70;19.55;;;;;;;2.80;100.00;99176.78;4144930;34;20048;-72
2022/12/05 13:29:58;;;;;;;41.60;17.27;;;;;;;2.80;100.00;99174.12;4134369;34;20356;-75
2022/12/05 13:32:40;;;;;;;46.40;19.35;;;;;;;3.06;100.00;99180.59;4145915;34;20145;-75
2022/12/05 13:35:09;;;;;;;50.15;20.67;;;;;;;2.79;100.00;99175.12;4149548;34;20078;-75
2022/12/05 13:43:27;;;;;;;53.00;19.95;;;;;;;2.74;100.00;99172.25;4208561;34;20059;-74
2022/12/05 13:46:03;;;;;;;47.53;20.25;;;;;;;2.95;100.00;99174.00;4208809;34;20043;-74
2022/12/05 13:48:34;;;;;;;46.50;20.95;;;;;;;2.69;100.00;99195.94;4207848;34;20042;-75
2022/12/05 13:51:09;;;;;;;47.90;22.53;;;;;;;2.32;100.00;99189.94;4213387;34;20080;-74
2022/12/05 13:53:39;;;;;;;47.38;21.20;;;;;;;2.47;100.00;99188.03;4218236;34;20051;-74
2022/12/05 13:56:25;;;;;;;48.72;19.33;;;;;;;2.21;100.00;99198.44;4190878;34;20050;-74
2022/12/05 13:58:57;;;;;;;51.22;22.87;;;;;;;2.66;100.00;99188.34;4186256;34;20047;-74
2022/12/05 14:01:23;;;;;;;46.30;19.80;;;;;;;2.10;100.00;99168.72;4182209;34;20032;-75
2022/12/05 14:03:50;;;;;;;56.63;23.33;;;;;;;2.44;100.00;99199.06;4209364;34;20509;-75
2022/12/05 14:06:39;;;;;;;47.03;21.20;;;;;;;2.35;100.00;99158.50;4206706;34;20184;-74
2022/12/05 14:09:18;;;;;;;56.30;21.05;;;;;;;2.32;100.00;99179.31;4199829;34;20493;-74
2022/12/05 14:12:09;;;;;;;48.13;21.58;;;;;;;2.70;100.00;99173.66;4199065;34;20105;-75